Rejestracja

Wszystkie dane podawane są w czasie UTC za wyjątkiem miejsc gdzie jest jednoznacznie podane, że jest inaczej. Dane podawane w serwisie mają charakter informacyjny!!!
Informacje w sprawie dostępu do serwisu pod numerem tel. +48 261-828-138
Informacja dla żołnierzy i pracowników wojska: Prosimy o niezwłoczną zmianę adresu e-mail w profilu użytkownika na pocztę w domenie @ron.mil.pl

Aktualna Pogoda
 
Pogoda w Polsce
1°C Szczecin -2°C Suwałki -3°C Warszawa -2°C Poznan
-2°C Opole -5°C Kraków 0°C Rzeszów
Więcej miast w Polsce

Pogoda w Europie
1°C Berlin 1°C Paryz 4°C Bruksela 3°C Oslo
-2°C Praga -1°C Zagrzeb
Więcej miast w Europie

Metary wojskowe test
METAR EPCE 060600Z 21012KT 170V240 9999 FEW019 BKN048 01/M04 Q1005 RMK 011 071 7/1=
METAR EPDA 060600Z 21015KT 9999 -RA OVC025 02/M01 Q1006 RMK 018 081 8/8=
METAR EPDE 060600Z 21006KT 8000 NSC M04/M06 Q1017 RMK M037 087 0/0=
METAR EPIR 060600Z 20014KT 9999 NSC M01/M05 Q1012 RMK M013 073 0/0=
METAR EPKS 060600Z 21007KT 180V270 9999 NSC M02/M04 Q1013 RMK M018 083 0/0=
METAR EPLK 060600Z 19006KT 160V220 7000 NSC M03/M05 Q1015 RMK M032 089 0/0=
METAR EPLY 060600Z 22010KT 9999 NSC M02/M04 Q1014 RMK M023 089 0/0=
METAR EPMB 060600Z 23017KT 8000 NSC M01/M03 Q1007 RMK M009 084 0/0=
METAR EPMI 060600Z 20008KT 170V230 8000 NSC M02/M04 Q1009 RMK M019 085 3/3=
METAR EPMM 060600Z 23008KT 6000 SCT007 M03/M05 Q1015 RMK M035 089 4/4=
METAR EPNA 060600Z 23006KT 9999 NSC M02/M03 Q1009 RMK M018 090 0/0=
METAR EPOK 060600Z 24013KT 9999 BKN132 03/M04 Q1004 RMK 030 062 5/5=
METAR EPPR 060600Z 18008KT 9999 FEW076 M00/M04 Q1007 RMK M001 076 2/2=
METAR EPPW 060600Z 20010KT 8000 NSC M03/M05 Q1013 RMK M029 086 0/0=
METAR EPSN 060600Z 22015G27KT 9999 -RA BKN050 01/M03 Q1007 RMK 013 072 7/7=
METAR EPTM 060600Z 16004KT 8000 NSC M03/M04 Q1016 RMK M026 088 0/0=


 

Prawa autorskie©2007 SSH SZ RP. Wszelkie prawa zastrzeżone.